Morris, Illinois
Current Conditions -  °F | °C
As of 5:15 PM on Wednesday 22 Oct 2014 (Local Time) from KC09 Reporting Station
Clear Clear  
Wind Chill: 57°   Ceiling: Unl
Heat Index: 57°   Visibility: 10mi
Dew Point: 39°   Wind: 3mph
Humidity: 50%   Direction: 130°SE
Pressure: 30.26"   Gusts: NA
Location:  41.36°N, 88.42°W
Report Text: KC09 222215Z AUTO 13003KT 10SM CLR 14/04 A3026 RMK AO2 T01410037
Loading
Personal Weather Stations






























Interactive Weather Map New forecast layout! Learn more

10-Day Weather Forecast

Advertisements
Track Severe Weather on mobile